Latest Weather Observations for Ulladulla

IDN60801

Issued at 7:32 am EDT Tuesday 24 January 2017 (issued every 30 minutes, with the page automatically refreshed every 10 minutes)

About weather observations | Map of weather stations | Latest weather observations for NSW | Other Formats
Station Details ID: 069138 Name: ULLADULLA AWS Lat: -35.36 Lon: 150.48 Height: 35.7 m
Data from the previous 72 hours. | See also: Recent months at Ulladulla
Date/Time
EDT
Temp
°C
App
Temp
°C
Dew
Point
°C
Rel
Hum
%
Delta-T
°C
Wind Press
QNH
hPa
Press
MSL
hPa
Rain since
9am
mm
Dir  Spd
km/h
Gust
km/h
Spd
kts
Gust
kts
24/07:30am 31.1 29.3 18.8 48 8.0 NW 26 44 14 24 1005.1 1004.9 0.0
24/07:00am 32.0 30.9 18.6 45 8.7 NW 22 39 12 21 1004.8 1004.6 0.0
24/06:38am 32.5 29.8 17.5 40 9.6 NW 28 46 15 25 1004.1 1003.9 0.0
24/06:30am 32.4 30.8 17.5 41 9.5 NW 22 35 12 19 1004.3 1004.1 0.0
24/06:00am 32.1 31.3 17.9 42 9.2 NNW 19 43 10 23 1003.8 1003.6 0.0
24/05:30am 30.5 31.2 17.9 47 8.1 NNW 11 17 6 9 1003.8 1003.6 0.0
24/05:15am 30.1 31.5 19.5 53 6.9 NW 11 22 6 12 1003.7 1003.5 0.0
24/05:00am 24.9 26.8 19.7 73 3.4 NNW 9 15 5 8 1003.4 1003.2 0.0
24/04:30am 24.1 26.3 19.6 76 2.9 N 7 11 4 6 1003.3 1003.1 0.0
24/04:00am 24.4 26.8 19.7 75 3.0 NNW 6 9 3 5 1003.2 1003.0 0.0
24/03:30am 24.2 26.4 19.5 75 3.0 N 7 17 4 9 1003.2 1003.0 0.0
24/03:00am 24.0 24.5 20.1 79 2.5 N 17 20 9 11 1003.3 1003.1 0.0
24/02:30am 23.5 24.9 20.4 83 2.0 NNW 13 19 7 10 1003.7 1003.5 0.0
24/02:00am 23.3 25.2 20.6 85 1.8 NNW 11 19 6 10 1003.9 1003.7 0.0
24/01:30am 23.3 24.7 20.4 84 1.9 N 13 20 7 11 1004.4 1004.2 0.0
24/01:00am 23.6 25.8 20.3 82 2.1 NNW 9 15 5 8 1004.7 1004.5 0.0
24/12:30am 23.7 26.2 20.2 81 2.3 NNW 7 13 4 7 1005.2 1005.0 0.0
24/12:00am 23.7 24.9 20.0 80 2.4 NE 13 22 7 12 1005.8 1005.6 0.0
 
Date/Time
EDT
Temp
°C
App
Temp
°C
Dew
Point
°C
Rel
Hum
%
Delta-T
°C
Wind Press
QNH
hPa
Press
MSL
hPa
Rain since
9am
mm
Dir  Spd
km/h
Gust
km/h
Spd
kts
Gust
kts
23/11:30pm 24.0 25.5 20.5 81 2.3 N 13 20 7 11 1006.2 1006.0 0.0
23/11:00pm 24.3 27.0 20.6 80 2.4 NNE 7 15 4 8 1006.6 1006.5 0.0
23/10:30pm 24.6 26.8 20.3 77 2.8 N 9 19 5 10 1006.7 1006.6 0.0
23/10:00pm 24.4 26.2 20.3 78 2.7 NNW 11 15 6 8 1006.5 1006.4 0.0
23/09:30pm 23.6 26.1 20.3 82 2.1 N 7 19 4 10 1006.6 1006.5 0.0
23/09:00pm 23.8 25.2 20.3 81 2.3 N 13 30 7 16 1006.5 1006.4 0.0
23/08:30pm 23.9 26.0 20.2 80 2.4 N 9 19 5 10 1006.2 1006.0 0.0
23/08:00pm 24.2 24.1 19.9 77 2.8 NE 20 37 11 20 1006.1 1005.9 0.0
23/07:30pm 23.9 24.8 20.0 79 2.5 NE 15 32 8 17 1006.2 1006.0 0.0
23/07:00pm 23.9 24.4 20.0 79 2.5 NNE 17 26 9 14 1006.1 1005.9 0.0
23/06:30pm 23.9 23.0 19.8 78 2.6 NNE 24 37 13 20 1005.8 1005.6 0.0
23/06:00pm 24.2 25.0 19.9 77 2.8 NNE 15 28 8 15 1005.7 1005.5 0.0
23/05:30pm 24.9 26.3 20.4 76 2.9 NNE 13 22 7 12 1006.0 1005.8 0.0
23/05:00pm 24.4 24.5 20.3 78 2.7 NE 20 30 11 16 1006.5 1006.4 0.0
23/04:30pm 24.0 25.8 20.3 80 2.4 NNW 11 20 6 11 1006.9 1006.8 0.0
23/04:00pm 24.3 24.3 19.8 76 2.9 NNE 19 28 10 15 1006.7 1006.6 0.0
23/03:30pm 25.3 25.4 20.3 74 3.3 NE 20 32 11 17 1007.3 1007.2 0.0
23/03:00pm 25.1 25.7 19.5 71 3.6 NNE 15 26 8 14 1007.6 1007.5 0.0
23/02:30pm 25.1 24.7 20.1 74 3.2 NNE 22 39 12 21 1008.1 1008.0 0.0
23/02:00pm 24.9 23.2 19.7 73 3.4 NNE 28 41 15 22 1008.4 1008.3 0.0
23/01:30pm 25.2 24.6 19.8 72 3.5 NE 22 35 12 19 1008.8 1008.7 0.0
23/01:00pm 24.8 22.2 19.8 74 3.2 NNE 33 43 18 23 1009.2 1009.1 0.0
23/12:30pm 24.6 22.1 19.7 74 3.2 NNE 32 39 17 21 1009.8 1009.7 0.0
23/12:00pm 24.3 21.7 19.6 75 3.0 NE 32 41 17 22 1010.2 1010.1 0.0
23/11:30am 24.0 21.8 19.5 76 2.9 NNE 30 39 16 21 1010.6 1010.5 0.0
23/11:00am 24.3 23.2 19.4 74 3.1 NE 24 32 13 17 1011.0 1010.9 0.0
23/10:30am 23.5 21.6 18.6 74 3.1 NE 26 33 14 18 1011.5 1011.4 0.0
23/10:00am 23.0 21.8 18.3 75 3.0 NE 22 30 12 16 1011.9 1011.8 0.0
23/09:30am 22.5 21.9 18.5 78 2.5 NE 19 26 10 14 1012.2 1012.1 0.0
23/09:00am 22.4 22.3 17.8 75 2.9 NE 15 28 8 15 1012.1 1012.0 0.0
23/08:30am 22.4 23.4 17.8 75 2.9 NNE 9 19 5 10 1012.7 1012.6 0.0
23/08:00am 21.5 21.7 17.7 79 2.4 N 13 19 7 10 1012.7 1012.6 0.0
23/07:30am 20.8 21.9 18.0 84 1.7 N 9 13 5 7 1012.6 1012.5 0.0
23/07:00am 19.7 20.3 16.9 84 1.7 N 9 15 5 8 1012.7 1012.6 0.0
23/06:30am 19.0 19.9 16.6 86 1.4 N 7 11 4 6 1012.6 1012.5 0.0
23/06:00am 18.7 19.7 16.3 86 1.4 N 6 9 3 5 1012.5 1012.4 0.0
23/05:30am 18.9 20.0 16.5 86 1.4 N 6 9 3 5 1012.6 1012.5 0.0
23/05:00am 19.0 19.9 16.6 86 1.4 N 7 9 4 5 1012.4 1012.3 0.0
23/04:30am 18.9 21.0 16.3 85 1.6 CALM 0 4 0 2 1012.7 1012.6 0.0
23/04:00am 19.2 20.7 16.6 85 1.6 NNW 4 7 2 4 1012.9 1012.8 0.0
23/03:30am 19.4 20.5 16.6 84 1.7 N 6 7 3 4 1012.9 1012.8 0.0
23/03:00am 19.6 21.1 16.6 83 1.8 N 4 7 2 4 1012.9 1012.8 0.0
23/02:30am 20.3 21.4 17.1 82 2.0 N 7 13 4 7 1013.0 1012.9 0.0
23/02:00am 20.1 21.7 16.9 82 1.9 N 4 6 2 3 1013.5 1013.4 0.0
23/01:30am 20.4 22.0 17.0 81 2.1 N 4 7 2 4 1013.9 1013.8 0.0
23/01:00am 20.4 22.3 16.8 80 2.2 N 2 4 1 2 1014.4 1014.3 0.0
23/12:30am 20.6 21.9 17.0 80 2.2 N 6 7 3 4 1014.6 1014.5 0.0
23/12:00am 21.2 22.3 17.2 78 2.5 NNW 7 9 4 5 1014.9 1014.8 0.0
 
Date/Time
EDT
Temp
°C
App
Temp
°C
Dew
Point
°C
Rel
Hum
%
Delta-T
°C
Wind Press
QNH
hPa
Press
MSL
hPa
Rain since
9am
mm
Dir  Spd
km/h
Gust
km/h
Spd
kts
Gust
kts
22/11:30pm 21.9 22.3 18.1 79 2.4 N 13 22 7 12 1014.8 1014.7 0.0
22/11:00pm 21.9 23.3 18.7 82 2.0 N 9 17 5 9 1015.0 1014.9 0.0
22/10:30pm 22.1 22.7 18.7 81 2.1 N 13 24 7 13 1015.0 1014.9 0.0
22/10:00pm 22.1 23.7 18.3 79 2.4 NNE 7 13 4 7 1015.1 1015.0 0.0
22/09:30pm 22.3 22.5 18.5 79 2.4 NE 15 30 8 16 1014.8 1014.7 0.0
22/09:00pm 22.2 22.9 18.0 77 2.6 NE 11 22 6 12 1014.8 1014.7 0.0
22/08:30pm 22.4 22.2 17.5 74 3.0 NNE 15 26 8 14 1014.6 1014.5 0.0
22/08:00pm 22.5 23.3 17.2 72 3.3 NNE 9 20 5 11 1014.4 1014.3 0.0
22/07:30pm 22.7 20.7 17.4 72 3.3 NE 24 33 13 18 1014.2 1014.1 0.0
22/07:00pm 22.8 20.5 17.5 72 3.3 NNE 26 37 14 20 1013.9 1013.8 0.0
22/06:30pm 22.9 20.7 16.9 69 3.7 NNE 24 33 13 18 1014.0 1013.9 0.0
22/06:00pm 23.0 21.0 16.5 67 4.0 NNE 22 32 12 17 1013.9 1013.8 0.0
22/05:30pm 23.0 21.0 15.6 63 4.5 NNE 20 30 11 16 1014.0 1013.9 0.0
22/05:00pm 23.2 21.4 15.5 62 4.6 NE 19 30 10 16 1014.4 1014.3 0.0
22/04:30pm 23.2 22.5 16.5 66 4.1 NE 15 26 8 14 1014.7 1014.6 0.0
22/04:00pm 23.0 21.9 16.3 66 4.1 NE 17 26 9 14 1015.1 1015.0 0.0
22/03:30pm 22.7 21.3 15.5 64 4.3 NE 17 26 9 14 1015.3 1015.2 0.0
22/03:00pm 22.9 21.5 15.5 63 4.4 NE 17 30 9 16 1015.6 1015.5 0.0
22/02:30pm 22.6 20.8 14.4 60 4.8 NE 17 28 9 15 1015.8 1015.7 0.0
22/02:00pm 22.9 21.9 14.7 60 4.9 NE 13 22 7 12 1016.0 1015.9 0.0
22/01:30pm 23.3 22.5 15.1 60 4.9 ENE 13 26 7 14 1016.2 1016.1 0.0
22/01:00pm 22.4 21.1 14.8 62 4.5 NE 15 24 8 13 1016.4 1016.3 0.0
22/12:30pm 22.6 21.5 14.4 60 4.8 ENE 13 20 7 11 1016.7 1016.6 0.0
22/12:00pm 22.7 22.4 15.5 64 4.3 ENE 11 17 6 9 1017.1 1017.0 0.0
22/11:30am - - - - - ENE 9 15 5 8 1017.3 1017.2 0.0
22/11:00am - - - - - NNE 11 15 6 8 1017.4 1017.3 0.0
22/10:30am 20.8 20.6 13.5 63 4.2 NNE 7 13 4 7 1017.6 1017.5 0.0
22/10:00am 21.0 20.8 13.7 63 4.2 NNE 7 11 4 6 1017.7 1017.6 0.0
22/09:30am 20.7 20.6 13.4 63 4.2 N 6 9 3 5 1017.8 1017.7 0.0
22/09:00am 20.6 21.0 13.8 65 3.9 NNE 4 7 2 4 1018.0 1017.9 0.0
22/08:30am 20.2 20.6 13.6 66 3.8 N 4 7 2 4 1017.9 1017.8 0.0
22/08:00am 19.3 19.3 13.7 70 3.2 NNW 6 7 3 4 1017.9 1017.8 0.0
22/07:30am 18.6 18.8 14.1 75 2.6 NW 6 7 3 4 1017.7 1017.6 0.0
22/07:00am 16.8 17.1 13.3 80 2.0 NW 4 4 2 2 1017.3 1017.2 0.0
22/06:30am 16.4 16.6 12.9 80 1.9 NW 4 6 2 3 1017.2 1017.1 0.0
22/06:00am 16.4 16.6 12.9 80 1.9 NW 4 6 2 3 1017.1 1017.0 0.0
22/05:30am - - - - - NW 4 6 2 3 1016.9 1016.8 0.0
22/05:00am - - - - - NW 4 6 2 3 1016.7 1016.6 0.0
22/04:30am - - - - - NNW 2 6 1 3 1016.4 1016.3 0.0
22/04:00am - - - - - NW 4 6 2 3 1016.4 1016.3 0.0
22/03:30am - - - - - CALM 0 4 0 2 1016.7 1016.6 0.0
22/03:00am - - - - - CALM 0 0 0 0 1016.9 1016.8 0.0
22/02:30am - - - - - CALM 0 4 0 2 1017.1 1017.0 0.0
22/02:00am - - - - - E 2 7 1 4 1017.1 1017.0 0.0
22/01:30am - - - - - SE 4 7 2 4 1017.2 1017.1 0.0
22/01:00am - - - - - SE 6 9 3 5 1017.3 1017.2 0.0
22/12:30am - - - - - SE 9 13 5 7 1017.4 1017.3 0.0
22/12:00am - - - - - SSE 13 20 7 11 1017.5 1017.4 0.0
 
Date/Time
EDT
Temp
°C
App
Temp
°C
Dew
Point
°C
Rel
Hum
%
Delta-T
°C
Wind Press
QNH
hPa
Press
MSL
hPa
Rain since
9am
mm
Dir  Spd
km/h
Gust
km/h
Spd
kts
Gust
kts
21/11:30pm 19.8 17.9 13.0 65 3.9 SSE 15 24 8 13 1017.5 1017.4 0.0
21/11:00pm 20.0 17.9 13.5 66 3.7 SSE 17 30 9 16 1017.3 1017.2 0.0
21/10:30pm 20.1 17.8 13.1 64 4.0 SSE 17 28 9 15 1017.2 1017.1 0.0
21/10:00pm 20.2 18.6 13.9 67 3.6 SSE 15 24 8 13 1017.2 1017.1 0.0
21/09:30pm 20.2 18.7 14.1 68 3.5 SSE 15 20 8 11 1017.1 1017.0 0.0
21/09:00pm 20.3 19.2 14.2 68 3.5 SSE 13 22 7 12 1016.9 1016.8 0.0
21/08:30pm 20.2 18.7 14.1 68 3.5 SE 15 24 8 13 1016.5 1016.4 0.0
21/08:00pm 20.5 18.5 13.9 66 3.8 SSE 17 24 9 13 1015.9 1015.8 0.0
21/07:30pm 20.6 18.3 14.0 66 3.8 SSE 19 28 10 15 1015.5 1015.4 0.0
21/07:00pm 20.9 19.4 14.1 65 3.9 SSE 15 22 8 12 1015.0 1014.9 0.0
21/06:30pm 21.3 19.8 13.0 59 4.7 SSE 13 20 7 11 1014.4 1014.3 0.0
21/06:00pm 21.8 20.8 13.4 59 4.8 SSE 11 20 6 11 1014.0 1013.9 0.0
21/05:30pm 23.1 22.1 13.3 54 5.7 SSE 11 19 6 10 1013.7 1013.6 0.0
21/05:00pm 22.7 21.0 12.6 53 5.8 SSE 13 24 7 13 1013.4 1013.3 0.0
21/04:30pm 23.0 21.0 12.6 52 5.9 SSE 15 24 8 13 1013.3 1013.2 0.0
21/04:00pm 22.6 20.4 12.0 51 6.0 SSE 15 24 8 13 1013.2 1013.1 0.0
21/03:30pm 23.1 21.2 13.0 53 5.8 SSE 15 24 8 13 1013.0 1012.9 0.0
21/03:00pm 23.0 21.0 12.6 52 5.9 SSE 15 24 8 13 1012.8 1012.7 0.0
21/02:30pm 22.9 20.7 12.2 51 6.1 SSE 15 24 8 13 1012.5 1012.4 0.0
21/02:00pm 23.0 21.2 12.0 50 6.2 SSE 13 22 7 12 1012.4 1012.3 0.0
21/01:30pm 22.8 20.4 12.7 53 5.8 SSE 17 24 9 13 1012.2 1012.1 0.0
21/01:00pm 22.8 19.7 11.5 49 6.3 SSE 19 32 10 17 1012.0 1011.9 0.0
21/12:30pm 22.6 20.2 12.5 53 5.8 SSE 17 26 9 14 1012.1 1012.0 0.0
21/12:00pm - - - - - SSE 17 24 9 13 1011.9 1011.8 0.0
21/11:30am - - - - - SSE 17 24 9 13 1011.8 1011.7 0.0
21/11:00am - - - - - SSE 17 24 9 13 1011.8 1011.7 0.0
21/10:30am - - - - - S 17 24 9 13 1011.7 1011.6 0.0
21/10:00am - - - - - S 22 28 12 15 1011.4 1011.3 0.0
21/09:30am - - - - - S 22 28 12 15 1011.2 1011.1 0.0
21/09:00am - - - - - S 17 24 9 13 1011.0 1010.9 0.4
21/08:30am - - - - - SSW 13 20 7 11 1010.8 1010.7 0.4
21/08:00am - - - - - SSW 11 17 6 9 1010.5 1010.4 0.4

Other Formats:

Comma delimited format used in spreadsheet applications
http://www.bom.gov.au/fwo/IDN60801/IDN60801.94938.axf

JavaScript Object Notation format (JSON) in row-major order
http://www.bom.gov.au/fwo/IDN60801/IDN60801.94938.json